createdAt,value
2019-02-26T00:00:42.345Z,0
2019-02-26T00:03:33.222Z,0
2019-02-26T00:06:30.245Z,0
2019-02-26T00:09:35.534Z,0
2019-02-26T00:12:30.914Z,0
2019-02-26T00:15:31.301Z,0
2019-02-26T00:18:31.904Z,0
2019-02-26T00:21:29.293Z,0
2019-02-26T00:24:30.762Z,0
2019-02-26T00:27:30.440Z,0
2019-02-26T00:30:32.951Z,0
2019-02-26T00:33:31.796Z,0
2019-02-26T00:36:29.729Z,0
2019-02-26T00:39:29.684Z,0
2019-02-26T00:42:36.067Z,0
2019-02-26T00:45:29.458Z,0
2019-02-26T00:48:31.382Z,0
2019-02-26T00:51:30.817Z,0
2019-02-26T00:54:29.303Z,0
2019-02-26T00:57:29.450Z,0
2019-02-26T01:00:30.786Z,0
2019-02-26T01:03:28.772Z,0
2019-02-26T01:06:29.066Z,0
2019-02-26T01:09:29.460Z,0
2019-02-26T01:12:37.534Z,0
2019-02-26T01:15:28.828Z,0
2019-02-26T01:18:29.011Z,0
2019-02-26T01:21:30.959Z,0
2019-02-26T01:24:28.645Z,0
2019-02-26T01:27:29.062Z,0
2019-02-26T01:30:35.635Z,0
2019-02-26T01:33:30.215Z,0
2019-02-26T01:36:31.306Z,0
2019-02-26T01:39:30.546Z,0
2019-02-26T01:42:34.764Z,0
2019-02-26T01:45:29.978Z,0
2019-02-26T01:48:32.208Z,0
2019-02-26T01:51:30.199Z,0
2019-02-26T01:54:30.619Z,0
2019-02-26T01:57:30.845Z,0
2019-02-26T02:00:28.396Z,0
2019-02-26T02:03:30.214Z,0
2019-02-26T02:06:33.129Z,0
2019-02-26T02:09:31.200Z,0
2019-02-26T02:12:30.133Z,0
2019-02-26T02:15:35.736Z,0
2019-02-26T02:18:29.901Z,0
2019-02-26T02:21:30.941Z,0
2019-02-26T02:24:32.648Z,0
2019-02-26T02:27:33.319Z,0
2019-02-26T02:30:39.069Z,0
2019-02-26T02:33:34.950Z,0
2019-02-26T02:36:31.616Z,0
2019-02-26T02:39:31.128Z,0
2019-02-26T02:42:34.743Z,0
2019-02-26T02:45:33.798Z,0
2019-02-26T02:48:28.331Z,0
2019-02-26T02:51:31.140Z,0
2019-02-26T02:54:31.426Z,0
2019-02-26T02:57:30.027Z,0
2019-02-26T03:00:31.290Z,0
2019-02-26T03:03:29.048Z,0
2019-02-26T03:06:30.545Z,0
2019-02-26T03:09:34.730Z,0
2019-02-26T03:12:28.899Z,0
2019-02-26T03:15:30.087Z,0
2019-02-26T03:18:30.031Z,0
2019-02-26T03:21:32.184Z,0
2019-02-26T03:24:30.845Z,0
2019-02-26T03:27:31.059Z,0
2019-02-26T03:30:40.504Z,0
2019-02-26T03:33:28.565Z,0
2019-02-26T03:36:31.519Z,0
2019-02-26T03:39:28.711Z,0
2019-02-26T03:42:33.465Z,0
2019-02-26T03:45:28.255Z,0
2019-02-26T03:48:33.132Z,0
2019-02-26T03:51:32.423Z,0
2019-02-26T03:54:27.979Z,0
2019-02-26T03:57:32.617Z,0
2019-02-26T04:00:34.608Z,0
2019-02-26T04:03:32.147Z,0
2019-02-26T04:06:30.676Z,0
2019-02-26T04:09:32.210Z,0
2019-02-26T04:12:35.987Z,0
2019-02-26T04:15:30.082Z,0
2019-02-26T04:18:28.685Z,0
2019-02-26T04:22:39.183Z,0
2019-02-26T04:24:29.895Z,0
2019-02-26T04:27:46.571Z,0
2019-02-26T04:30:49.644Z,0
2019-02-26T04:35:44.884Z,0
2019-02-26T04:36:47.250Z,0
2019-02-26T04:41:42.744Z,0
2019-02-26T04:44:54.512Z,0
2019-02-26T04:46:17.413Z,0
2019-02-26T04:48:35.517Z,0
2019-02-26T04:51:28.922Z,0
2019-02-26T04:54:39.373Z,0
2019-02-26T04:57:28.550Z,0
2019-02-26T05:00:30.430Z,0
2019-02-26T05:03:33.375Z,0
2019-02-26T05:06:29.431Z,0
2019-02-26T05:09:30.584Z,0
2019-02-26T05:12:31.665Z,0
2019-02-26T05:15:33.544Z,0
2019-02-26T05:18:29.079Z,0
2019-02-26T05:21:30.411Z,0
2019-02-26T05:24:32.111Z,0
2019-02-26T05:27:36.317Z,0
2019-02-26T05:30:32.686Z,0
2019-02-26T05:33:30.403Z,0
2019-02-26T05:36:33.191Z,0
2019-02-26T05:39:36.620Z,0
2019-02-26T05:42:28.234Z,0
2019-02-26T05:45:30.010Z,0
2019-02-26T05:48:33.693Z,0
2019-02-26T05:51:29.921Z,0
2019-02-26T05:54:34.898Z,0
2019-02-26T05:57:44.746Z,0
2019-02-26T06:00:34.529Z,0
2019-02-26T06:03:31.702Z,0
2019-02-26T06:06:29.719Z,0
2019-02-26T06:09:30.545Z,1
2019-02-26T06:12:30.554Z,0
2019-02-26T06:15:28.817Z,0
2019-02-26T06:18:28.585Z,2
2019-02-26T06:21:31.568Z,3
2019-02-26T06:24:37.879Z,0
2019-02-26T06:27:32.135Z,6
2019-02-26T06:30:28.935Z,7
2019-02-26T06:33:34.130Z,0
2019-02-26T06:36:30.336Z,2
2019-02-26T06:39:31.696Z,17
2019-02-26T06:42:30.680Z,20
2019-02-26T06:45:31.313Z,22
2019-02-26T06:48:33.233Z,14
2019-02-26T06:51:30.643Z,18
2019-02-26T06:54:31.764Z,23
2019-02-26T06:57:28.488Z,45
2019-02-26T07:00:31.811Z,52
2019-02-26T07:03:28.391Z,44
2019-02-26T07:06:35.185Z,37
2019-02-26T07:09:32.432Z,54
2019-02-26T07:12:31.030Z,57
2019-02-26T07:15:29.433Z,48
2019-02-26T07:18:32.555Z,54
2019-02-26T07:21:28.264Z,67
2019-02-26T07:24:31.497Z,64
2019-02-26T07:27:29.544Z,85
2019-02-26T07:30:28.575Z,58
2019-02-26T07:33:32.398Z,89
2019-02-26T07:36:31.294Z,102
2019-02-26T07:39:30.944Z,59
2019-02-26T07:42:34.693Z,58
2019-02-26T07:45:33.650Z,122
2019-02-26T07:48:33.977Z,124
2019-02-26T07:51:29.446Z,201
2019-02-26T07:54:29.029Z,288
2019-02-26T07:57:31.178Z,121
2019-02-26T08:00:30.521Z,73
2019-02-26T08:03:32.444Z,69
2019-02-26T08:06:29.750Z,170
2019-02-26T08:09:32.174Z,218
2019-02-26T08:12:30.461Z,226
2019-02-26T08:15:30.311Z,247
2019-02-26T08:18:28.454Z,423
2019-02-26T08:21:32.586Z,445
2019-02-26T08:24:30.338Z,553
2019-02-26T08:27:30.949Z,521
2019-02-26T08:30:34.496Z,498
2019-02-26T08:33:28.818Z,422
2019-02-26T08:36:28.257Z,16
2019-02-26T08:39:29.220Z,332
2019-02-26T08:42:28.615Z,325
2019-02-26T08:45:31.282Z,353
2019-02-26T08:48:32.544Z,407
2019-02-26T08:51:31.701Z,416
2019-02-26T08:54:36.501Z,323
2019-02-26T08:57:28.285Z,551
2019-02-26T09:00:28.967Z,528
2019-02-26T09:03:40.166Z,528
2019-02-26T09:06:29.578Z,601
2019-02-26T09:09:30.171Z,488
2019-02-26T09:12:31.109Z,446
2019-02-26T09:15:31.187Z,343
2019-02-26T09:18:37.491Z,310
2019-02-26T09:21:34.714Z,382
2019-02-26T09:24:29.370Z,341
2019-02-26T09:27:29.497Z,396
2019-02-26T09:30:35.836Z,0
2019-02-26T09:33:32.693Z,238
2019-02-26T09:36:33.993Z,194
2019-02-26T09:39:29.557Z,24
2019-02-26T09:42:30.094Z,163
2019-02-26T09:45:31.172Z,198
2019-02-26T09:48:30.854Z,44
2019-02-26T09:51:30.619Z,437
2019-02-26T09:54:30.861Z,106
2019-02-26T09:57:33.565Z,324
2019-02-26T10:00:30.069Z,168
2019-02-26T10:03:29.697Z,280
2019-02-26T10:06:31.247Z,170
2019-02-26T10:09:32.857Z,127
2019-02-26T10:12:29.865Z,419
2019-02-26T10:15:28.881Z,0
2019-02-26T10:18:30.430Z,242
2019-02-26T10:21:34.843Z,0
2019-02-26T10:24:30.256Z,276
2019-02-26T10:27:33.694Z,434
2019-02-26T10:30:31.434Z,96
2019-02-26T10:33:35.994Z,382
2019-02-26T10:36:34.709Z,0
2019-02-26T10:39:32.246Z,0
2019-02-26T10:42:39.572Z,214
2019-02-26T10:45:28.244Z,187
2019-02-26T10:48:37.571Z,165
2019-02-26T10:51:30.343Z,190
2019-02-26T10:54:35.484Z,179
2019-02-26T10:57:30.959Z,175
2019-02-26T11:00:32.160Z,202
2019-02-26T11:03:35.275Z,211
2019-02-26T11:06:33.718Z,0
2019-02-26T11:09:36.223Z,326
2019-02-26T11:12:30.793Z,233
2019-02-26T11:15:31.071Z,290
2019-02-26T11:18:32.068Z,366
2019-02-26T11:21:28.545Z,373
2019-02-26T11:24:30.314Z,280
2019-02-26T11:27:30.978Z,230
2019-02-26T11:30:32.205Z,332
2019-02-26T11:33:29.310Z,112
2019-02-26T11:36:31.246Z,0
2019-02-26T11:39:29.965Z,388
2019-02-26T11:42:31.517Z,131
2019-02-26T11:45:34.390Z,115
2019-02-26T11:48:33.113Z,123
2019-02-26T11:51:37.034Z,111
2019-02-26T11:54:32.696Z,109
2019-02-26T11:57:32.783Z,111
2019-02-26T12:00:47.485Z,123
2019-02-26T12:03:38.973Z,111
2019-02-26T12:06:28.378Z,106
2019-02-26T12:09:32.413Z,116
2019-02-26T12:12:28.422Z,116
2019-02-26T12:15:30.218Z,104
2019-02-26T12:18:34.176Z,114
2019-02-26T12:21:29.926Z,103
2019-02-26T12:24:29.400Z,113
2019-02-26T12:27:36.014Z,112
2019-02-26T12:30:32.395Z,100
2019-02-26T12:33:32.331Z,110
2019-02-26T12:36:29.921Z,98
2019-02-26T12:39:31.483Z,109
2019-02-26T12:42:31.187Z,96
2019-02-26T12:45:30.647Z,96
2019-02-26T12:48:35.182Z,106
2019-02-26T12:51:31.813Z,105
2019-02-26T12:54:31.244Z,105
2019-02-26T12:57:32.365Z,105
2019-02-26T13:00:34.984Z,92
2019-02-26T13:03:35.986Z,90
2019-02-26T13:06:31.809Z,101
2019-02-26T13:09:29.369Z,90
2019-02-26T13:12:33.665Z,89
2019-02-26T13:15:32.785Z,100
2019-02-26T13:18:28.361Z,100
2019-02-26T13:21:30.683Z,88
2019-02-26T13:24:34.341Z,88
2019-02-26T13:27:30.249Z,98
2019-02-26T13:30:29.121Z,98
2019-02-26T13:33:36.964Z,85
2019-02-26T13:36:29.841Z,86
2019-02-26T13:39:38.364Z,85
2019-02-26T13:42:32.973Z,96
2019-02-26T13:45:29.194Z,95
2019-02-26T13:48:28.970Z,94
2019-02-26T13:51:28.518Z,93
2019-02-26T13:54:28.475Z,93
2019-02-26T13:57:29.255Z,79
2019-02-26T14:00:29.009Z,78
2019-02-26T14:03:28.095Z,87
2019-02-26T14:06:28.894Z,87
2019-02-26T14:09:28.756Z,87
2019-02-26T14:12:28.593Z,84
2019-02-26T14:15:28.507Z,82
2019-02-26T14:18:28.423Z,70
2019-02-26T14:21:28.093Z,78
2019-02-26T14:24:28.701Z,76
2019-02-26T14:27:28.350Z,79
2019-02-26T14:30:30.365Z,77
2019-02-26T14:33:29.173Z,64
2019-02-26T14:36:29.088Z,62
2019-02-26T14:39:29.922Z,60
2019-02-26T14:42:28.605Z,70
2019-02-26T14:45:28.367Z,56
2019-02-26T14:48:29.010Z,66
2019-02-26T14:51:28.788Z,53
2019-02-26T14:54:33.802Z,63
2019-02-26T14:57:28.575Z,60
2019-02-26T15:00:29.232Z,48
2019-02-26T15:03:28.983Z,45
2019-02-26T15:06:28.988Z,54
2019-02-26T15:09:28.831Z,54
2019-02-26T15:12:28.724Z,41
2019-02-26T15:15:28.370Z,51
2019-02-26T15:18:29.503Z,49
2019-02-26T15:21:28.255Z,48
2019-02-26T15:24:28.786Z,47
2019-02-26T15:27:35.872Z,33
2019-02-26T15:30:28.947Z,31
2019-02-26T15:33:28.754Z,30
2019-02-26T15:36:28.371Z,30
2019-02-26T15:39:29.349Z,28
2019-02-26T15:42:30.161Z,38
2019-02-26T15:45:29.625Z,37
2019-02-26T15:48:28.506Z,24
2019-02-26T15:51:33.917Z,22
2019-02-26T15:54:28.737Z,21
2019-02-26T15:57:28.583Z,19
2019-02-26T16:00:28.974Z,18
2019-02-26T16:03:29.695Z,16
2019-02-26T16:06:28.737Z,14
2019-02-26T16:09:28.710Z,13
2019-02-26T16:12:28.511Z,12
2019-02-26T16:15:28.066Z,22
2019-02-26T16:18:29.602Z,20
2019-02-26T16:21:32.497Z,8
2019-02-26T16:24:28.374Z,6
2019-02-26T16:27:37.418Z,16
2019-02-26T16:30:28.837Z,15
2019-02-26T16:33:28.565Z,13
2019-02-26T16:36:28.786Z,12
2019-02-26T16:39:28.402Z,10
2019-02-26T16:42:30.370Z,0
2019-02-26T16:45:29.017Z,0
2019-02-26T16:48:29.442Z,0
2019-02-26T16:51:33.662Z,6
2019-02-26T16:54:28.281Z,5
2019-02-26T16:57:28.991Z,0
2019-02-26T17:00:29.720Z,4
2019-02-26T17:03:28.556Z,0
2019-02-26T17:06:28.801Z,0
2019-02-26T17:09:28.404Z,0
2019-02-26T17:12:29.702Z,1
2019-02-26T17:15:29.908Z,0
2019-02-26T17:18:30.677Z,0
2019-02-26T17:21:30.498Z,0
2019-02-26T17:24:29.604Z,0
2019-02-26T17:27:28.340Z,0
2019-02-26T17:30:28.859Z,0
2019-02-26T17:33:28.374Z,0
2019-02-26T17:36:29.303Z,0
2019-02-26T17:39:28.770Z,0
2019-02-26T17:42:30.789Z,0
2019-02-26T17:45:28.382Z,0
2019-02-26T17:48:31.061Z,0
2019-02-26T17:51:32.678Z,0
2019-02-26T17:54:28.419Z,0
2019-02-26T17:57:29.111Z,0
2019-02-26T18:00:29.388Z,0
2019-02-26T18:03:29.252Z,0
2019-02-26T18:06:29.076Z,0
2019-02-26T18:09:28.679Z,0
2019-02-26T18:12:28.346Z,0
2019-02-26T18:15:31.631Z,0
2019-02-26T18:18:28.433Z,0
2019-02-26T18:21:28.775Z,0
2019-02-26T18:24:29.890Z,0
2019-02-26T18:27:30.571Z,0
2019-02-26T18:30:28.656Z,0
2019-02-26T18:33:28.317Z,0
2019-02-26T18:36:29.065Z,0
2019-02-26T18:39:28.677Z,0
2019-02-26T18:42:28.979Z,0
2019-02-26T18:45:29.031Z,0
2019-02-26T18:48:28.840Z,0
2019-02-26T18:51:33.671Z,0
2019-02-26T18:54:33.403Z,0
2019-02-26T18:57:29.002Z,0
2019-02-26T19:00:29.808Z,0
2019-02-26T19:03:28.420Z,0
2019-02-26T19:06:29.147Z,0
2019-02-26T19:09:28.927Z,0
2019-02-26T19:12:30.595Z,0
2019-02-26T19:15:28.962Z,0
2019-02-26T19:18:28.711Z,0
2019-02-26T19:21:28.192Z,0
2019-02-26T19:24:28.822Z,0
2019-02-26T19:27:32.449Z,0
2019-02-26T19:30:29.005Z,0
2019-02-26T19:33:29.900Z,0
2019-02-26T19:36:28.648Z,0
2019-02-26T19:39:28.127Z,0
2019-02-26T19:42:31.548Z,0
2019-02-26T19:45:28.337Z,0
2019-02-26T19:48:30.899Z,0
2019-02-26T19:51:28.962Z,0
2019-02-26T19:54:28.733Z,0
2019-02-26T19:57:30.237Z,0
2019-02-26T20:00:33.909Z,0
2019-02-26T20:03:39.250Z,0
2019-02-26T20:06:28.524Z,0
2019-02-26T20:09:29.871Z,0
2019-02-26T20:12:29.510Z,0
2019-02-26T20:15:28.164Z,0
2019-02-26T20:18:34.206Z,0
2019-02-26T20:21:32.348Z,0
2019-02-26T20:24:30.269Z,0
2019-02-26T20:27:35.899Z,0
2019-02-26T20:30:28.536Z,0
2019-02-26T20:33:29.230Z,0
2019-02-26T20:36:31.896Z,0
2019-02-26T20:39:28.463Z,0
2019-02-26T20:42:34.193Z,0
2019-02-26T20:45:31.871Z,0
2019-02-26T20:48:28.386Z,0
2019-02-26T20:51:32.017Z,0
2019-02-26T20:54:28.678Z,0
2019-02-26T20:57:28.340Z,0
2019-02-26T21:00:29.182Z,0
2019-02-26T21:03:28.762Z,0
2019-02-26T21:06:31.098Z,0
2019-02-26T21:09:33.823Z,0
2019-02-26T21:12:29.351Z,0
2019-02-26T21:15:30.105Z,0
2019-02-26T21:18:30.675Z,0
2019-02-26T21:21:29.258Z,0
2019-02-26T21:24:28.745Z,0
2019-02-26T21:27:28.689Z,0
2019-02-26T21:30:28.068Z,0
2019-02-26T21:33:30.628Z,0
2019-02-26T21:36:28.652Z,0
2019-02-26T21:39:28.201Z,0
2019-02-26T21:42:29.517Z,0
2019-02-26T21:45:29.425Z,0
2019-02-26T21:48:28.748Z,0
2019-02-26T21:51:28.178Z,0
2019-02-26T21:54:28.494Z,0
2019-02-26T21:57:28.868Z,0
2019-02-26T22:00:28.385Z,0
2019-02-26T22:03:29.061Z,0
2019-02-26T22:06:28.384Z,0
2019-02-26T22:09:30.153Z,0
2019-02-26T22:12:28.084Z,0
2019-02-26T22:15:28.722Z,0
2019-02-26T22:18:31.195Z,0
2019-02-26T22:21:32.261Z,0
2019-02-26T22:24:28.835Z,0
2019-02-26T22:27:28.490Z,0
2019-02-26T22:30:29.016Z,0
2019-02-26T22:33:28.575Z,0
2019-02-26T22:36:28.058Z,0
2019-02-26T22:39:28.667Z,0
2019-02-26T22:42:28.038Z,0
2019-02-26T22:45:28.507Z,0
2019-02-26T22:48:28.874Z,0
2019-02-26T22:51:28.900Z,0
2019-02-26T22:54:28.389Z,0
2019-02-26T22:57:29.810Z,0
2019-02-26T23:00:39.301Z,0
2019-02-26T23:03:28.239Z,0
2019-02-26T23:06:29.499Z,0
2019-02-26T23:09:33.115Z,0
2019-02-26T23:12:28.776Z,0
2019-02-26T23:15:28.237Z,0
2019-02-26T23:18:31.126Z,0
2019-02-26T23:21:29.471Z,0
2019-02-26T23:24:28.515Z,0
2019-02-26T23:27:29.200Z,0
2019-02-26T23:30:28.762Z,0
2019-02-26T23:33:28.900Z,0
2019-02-26T23:36:28.674Z,0
2019-02-26T23:39:28.117Z,0
2019-02-26T23:42:28.569Z,0
2019-02-26T23:45:28.238Z,0
2019-02-26T23:48:29.081Z,0
2019-02-26T23:51:34.222Z,0
2019-02-26T23:54:28.759Z,0
2019-02-26T23:57:28.717Z,0
